createdAt,value
2022-12-04T00:01:06.066Z,101691.59
2022-12-04T00:03:34.051Z,101684.50
2022-12-04T00:06:05.848Z,101684.47
2022-12-04T00:08:33.763Z,101688.88
2022-12-04T00:11:01.683Z,101686.16
2022-12-04T00:13:30.981Z,101692.28
2022-12-04T00:15:59.397Z,101687.88
2022-12-04T00:18:27.371Z,101691.31
2022-12-04T00:20:55.355Z,101694.78
2022-12-04T00:23:25.717Z,101691.22
2022-12-04T00:25:53.642Z,101690.41
2022-12-04T00:28:21.620Z,101680.03
2022-12-04T00:30:51.069Z,101680.06
2022-12-04T00:33:18.988Z,101649.56
2022-12-04T00:35:46.895Z,101667.06
2022-12-04T00:38:14.849Z,101671.56
2022-12-04T00:40:50.369Z,101667.06
2022-12-04T00:43:18.363Z,101657.47
2022-12-04T00:45:46.304Z,101653.09
2022-12-04T00:48:15.709Z,101655.84
2022-12-04T00:50:43.654Z,101656.03
2022-12-04T00:53:11.543Z,101643.75
2022-12-04T00:55:40.844Z,101641.25
2022-12-04T00:58:09.039Z,101640.47
2022-12-04T01:00:37.073Z,101644.13
2022-12-04T01:03:05.310Z,101630.16
2022-12-04T01:05:39.081Z,101638.19
2022-12-04T01:08:07.160Z,101636.63
2022-12-04T01:10:35.193Z,101627.81
2022-12-04T01:13:03.119Z,101624.47
2022-12-04T01:15:31.058Z,101619.22
2022-12-04T01:17:58.960Z,101624.56
2022-12-04T01:20:26.864Z,101619.38
2022-12-04T01:22:56.158Z,101627.31
2022-12-04T01:25:24.075Z,101616.81
2022-12-04T01:27:52.002Z,101618.69
2022-12-04T01:30:20.049Z,101622.31
2022-12-04T01:32:47.995Z,101618.78
2022-12-04T01:35:15.994Z,101617.09
2022-12-04T01:37:43.888Z,101615.34
2022-12-04T01:40:15.048Z,101613.72
2022-12-04T01:42:43.056Z,101616.41
2022-12-04T01:45:38.939Z,101613.88
2022-12-04T01:48:11.362Z,101605.13
2022-12-04T01:50:39.245Z,101607.88
2022-12-04T01:53:07.149Z,101620.19
2022-12-04T01:55:36.458Z,101612.28
2022-12-04T01:58:04.354Z,101609.72
2022-12-04T02:00:32.275Z,101604.44
2022-12-04T02:03:00.298Z,101615.94
2022-12-04T02:05:28.385Z,101617.72
2022-12-04T02:07:58.506Z,101620.38
2022-12-04T02:10:27.334Z,101612.53
2022-12-04T02:12:59.576Z,101611.72
2022-12-04T02:15:29.778Z,101608.13
2022-12-04T02:18:00.796Z,101622.31
2022-12-04T02:20:31.166Z,101627.63
2022-12-04T02:23:27.102Z,101619.75
2022-12-04T02:25:58.086Z,101608.47
2022-12-04T02:28:27.802Z,101624.28
2022-12-04T02:30:57.587Z,101619.06
2022-12-04T02:33:26.766Z,101619.94
2022-12-04T02:35:57.901Z,101598.84
2022-12-04T02:38:27.136Z,101618.22
2022-12-04T02:40:58.266Z,101615.63
2022-12-04T02:43:28.470Z,101618.31
2022-12-04T02:45:58.927Z,101620.94
2022-12-04T02:48:26.865Z,101611.16
2022-12-04T02:50:54.949Z,101606.63
2022-12-04T02:53:26.029Z,101617.13
2022-12-04T02:55:55.111Z,101616.06
2022-12-04T02:58:24.816Z,101610.69
2022-12-04T03:00:54.325Z,101607.13
2022-12-04T03:03:23.571Z,101610.56
2022-12-04T03:05:55.121Z,101597.25
2022-12-04T03:08:24.223Z,101608.72
2022-12-04T03:10:53.018Z,101599.81
2022-12-04T03:13:22.057Z,101591.78
2022-12-04T03:15:51.941Z,101574.03
2022-12-04T03:18:22.916Z,101586.28
2022-12-04T03:20:52.155Z,101586.19
2022-12-04T03:23:21.809Z,101578.19
2022-12-04T03:25:52.419Z,101577.25
2022-12-04T03:28:23.590Z,101578.94
2022-12-04T03:30:54.674Z,101574.50
2022-12-04T03:33:25.026Z,101571.91
2022-12-04T03:35:54.098Z,101578.03
2022-12-04T03:38:23.354Z,101587.75
2022-12-04T03:40:55.618Z,101583.28
2022-12-04T03:43:27.062Z,101587.72
2022-12-04T03:45:56.369Z,101581.53
2022-12-04T03:48:27.508Z,101590.41
2022-12-04T03:50:58.763Z,101581.69
2022-12-04T03:53:29.124Z,101581.69
2022-12-04T03:55:59.152Z,101586.88
2022-12-04T03:58:28.974Z,101584.31
2022-12-04T04:00:57.078Z,101581.63
2022-12-04T04:03:28.459Z,101586.88
2022-12-04T04:05:57.573Z,101586.00
2022-12-04T04:08:27.927Z,101577.16
2022-12-04T04:10:57.413Z,101577.31
2022-12-04T04:13:45.412Z,101584.28
2022-12-04T04:16:33.698Z,101566.84
2022-12-04T04:19:16.883Z,101577.44
2022-12-04T04:22:02.401Z,101567.00
2022-12-04T04:24:32.615Z,101575.88
2022-12-04T04:27:00.489Z,101567.16
2022-12-04T04:29:28.493Z,101575.97
2022-12-04T04:31:58.716Z,101577.75
2022-12-04T04:34:29.986Z,101568.03
2022-12-04T04:37:00.285Z,101563.63
2022-12-04T04:39:32.353Z,101566.13
2022-12-04T04:42:03.898Z,101559.97
2022-12-04T04:44:34.484Z,101567.81
2022-12-04T04:47:04.637Z,101577.50
2022-12-04T04:49:35.039Z,101573.88
2022-12-04T04:52:02.986Z,101575.59
2022-12-04T04:54:31.205Z,101578.16
2022-12-04T04:56:59.180Z,101575.50
2022-12-04T04:59:27.114Z,101543.06
2022-12-04T05:01:55.110Z,101580.66
2022-12-04T05:04:23.075Z,101573.63
2022-12-04T05:06:52.350Z,101565.63
2022-12-04T05:09:20.246Z,101571.75
2022-12-04T05:11:48.137Z,101578.81
2022-12-04T05:14:16.211Z,101575.28
2022-12-04T05:16:44.113Z,101564.63
2022-12-04T05:19:29.421Z,101581.38
2022-12-04T05:21:58.698Z,101570.78
2022-12-04T05:24:26.745Z,101571.63
2022-12-04T05:26:54.657Z,101568.06
2022-12-04T05:29:22.531Z,101574.16
2022-12-04T05:31:50.515Z,101572.28
2022-12-04T05:34:18.467Z,101574.88
2022-12-04T05:36:46.362Z,101562.56
2022-12-04T05:39:16.129Z,101575.84
2022-12-04T05:41:44.047Z,101576.69
2022-12-04T05:44:11.991Z,101572.22
2022-12-04T05:46:39.976Z,101576.59
2022-12-04T05:49:07.950Z,101579.22
2022-12-04T05:51:35.831Z,101580.06
2022-12-04T05:54:03.773Z,101566.72
2022-12-04T05:56:33.071Z,101572.78
2022-12-04T05:59:00.986Z,101571.91
2022-12-04T06:01:28.865Z,101573.66
2022-12-04T06:03:56.793Z,101573.72
2022-12-04T06:06:25.782Z,101572.13
2022-12-04T06:08:55.373Z,101572.16
2022-12-04T06:11:24.007Z,101572.28
2022-12-04T06:13:53.377Z,101570.63
2022-12-04T06:16:23.014Z,101583.09
2022-12-04T06:18:51.675Z,101568.13
2022-12-04T06:21:19.690Z,101572.63
2022-12-04T06:23:47.695Z,101569.19
2022-12-04T06:26:15.767Z,101561.25
2022-12-04T06:28:43.698Z,101569.31
2022-12-04T06:31:15.052Z,101575.53
2022-12-04T06:33:43.032Z,101574.63
2022-12-04T06:36:13.456Z,101571.09
2022-12-04T06:38:41.497Z,101575.56
2022-12-04T06:41:10.183Z,101572.00
2022-12-04T06:43:38.096Z,101578.19
2022-12-04T06:46:06.939Z,101571.06
2022-12-04T06:48:36.291Z,101571.13
2022-12-04T06:51:05.208Z,101575.53
2022-12-04T06:53:33.146Z,101565.84
2022-12-04T06:56:01.884Z,101559.66
2022-12-04T06:58:30.026Z,101554.41
2022-12-04T07:00:58.118Z,101558.81
2022-12-04T07:03:26.154Z,101554.34
2022-12-04T07:05:55.449Z,101560.69
2022-12-04T07:08:23.362Z,101551.84
2022-12-04T07:10:57.440Z,101551.06
2022-12-04T07:13:27.039Z,101558.09
2022-12-04T07:15:54.918Z,101553.72
2022-12-04T07:18:22.856Z,101551.94
2022-12-04T07:20:50.790Z,101553.75
2022-12-04T07:23:20.051Z,101556.41
2022-12-04T07:25:47.985Z,101557.34
2022-12-04T07:28:15.902Z,101554.69
2022-12-04T07:30:43.942Z,101556.50
2022-12-04T07:33:11.845Z,101560.00
2022-12-04T07:35:39.786Z,101546.78
2022-12-04T07:38:07.726Z,101554.69
2022-12-04T07:40:38.173Z,101546.84
2022-12-04T07:43:06.157Z,101554.84
2022-12-04T07:45:34.141Z,101553.16
2022-12-04T07:48:02.084Z,101555.81
2022-12-04T07:50:30.138Z,101561.22
2022-12-04T07:52:58.175Z,101563.91
2022-12-04T07:55:26.839Z,101556.84
2022-12-04T07:57:56.497Z,101552.44
2022-12-04T08:00:24.637Z,101554.25
2022-12-04T08:02:52.567Z,101542.97
2022-12-04T08:05:20.505Z,101551.84
2022-12-04T08:07:48.538Z,101544.00
2022-12-04T08:10:16.495Z,101550.38
2022-12-04T08:12:44.411Z,101553.19
2022-12-04T08:15:13.944Z,101550.81
2022-12-04T08:17:41.970Z,101553.50
2022-12-04T08:20:10.550Z,101558.03
2022-12-04T08:22:38.517Z,101563.44
2022-12-04T08:25:07.010Z,101548.69
2022-12-04T08:27:35.517Z,101559.19
2022-12-04T08:30:03.430Z,101565.41
2022-12-04T08:32:32.782Z,101556.56
2022-12-04T08:35:00.706Z,101568.94
2022-12-04T08:37:28.640Z,101567.13
2022-12-04T08:39:58.582Z,101570.59
2022-12-04T08:42:26.661Z,101577.59
2022-12-04T08:44:57.417Z,101570.50
2022-12-04T08:47:26.744Z,101571.38
2022-12-04T08:49:58.220Z,101571.28
2022-12-04T08:52:27.191Z,101558.91
2022-12-04T08:54:56.489Z,101567.56
2022-12-04T08:57:25.412Z,101566.59
2022-12-04T08:59:58.054Z,101557.66
2022-12-04T09:02:29.044Z,101562.81
2022-12-04T09:04:59.957Z,101559.97
2022-12-04T09:07:28.899Z,101560.72
2022-12-04T09:10:08.760Z,101568.53
2022-12-04T09:12:36.778Z,101564.06
2022-12-04T09:15:10.632Z,101560.53
2022-12-04T09:17:40.552Z,101570.97
2022-12-04T09:20:15.412Z,101567.38
2022-12-04T09:23:03.251Z,101580.50
2022-12-04T09:25:32.184Z,101584.03
2022-12-04T09:28:00.141Z,101581.34
2022-12-04T09:30:28.316Z,101582.13
2022-12-04T09:32:56.265Z,101589.19
2022-12-04T09:35:25.547Z,101590.84
2022-12-04T09:37:53.469Z,101583.69
2022-12-04T09:40:24.933Z,101587.13
2022-12-04T09:42:56.094Z,101578.19
2022-12-04T09:45:24.950Z,101587.94
2022-12-04T09:47:54.235Z,101590.50
2022-12-04T09:50:23.054Z,101595.72
2022-12-04T09:52:57.250Z,101595.66
2022-12-04T09:55:26.493Z,101558.72
2022-12-04T09:58:01.304Z,101581.28
2022-12-04T10:00:30.110Z,101590.94
2022-12-04T10:03:00.468Z,101575.13
2022-12-04T10:05:43.372Z,101596.09
2022-12-04T10:08:17.417Z,101595.94
2022-12-04T10:10:47.713Z,101601.19
2022-12-04T10:13:44.650Z,101586.09
2022-12-04T10:16:14.675Z,101590.31
2022-12-04T10:18:45.892Z,101602.34
2022-12-04T10:21:24.785Z,101603.13
2022-12-04T10:24:00.243Z,101607.44
2022-12-04T10:26:29.882Z,101610.13
2022-12-04T10:29:00.534Z,101622.25
2022-12-04T10:31:28.947Z,101615.94
2022-12-04T10:34:00.004Z,101621.34
2022-12-04T10:36:30.530Z,101630.25
2022-12-04T10:39:00.410Z,101622.38
2022-12-04T10:41:30.362Z,101630.47
2022-12-04T10:43:58.315Z,101623.41
2022-12-04T10:46:27.895Z,101617.28
2022-12-04T10:48:58.035Z,101615.50
2022-12-04T10:51:25.955Z,101608.44
2022-12-04T10:53:53.864Z,101613.72
2022-12-04T10:56:24.284Z,101612.69
2022-12-04T10:58:59.585Z,101606.16
2022-12-04T11:01:28.038Z,101603.28
2022-12-04T11:03:57.763Z,101605.63
2022-12-04T11:06:25.936Z,101611.97
2022-12-04T11:08:54.140Z,101607.03
2022-12-04T11:11:26.798Z,101617.22
2022-12-04T11:14:03.002Z,101603.81
2022-12-04T11:16:36.709Z,101601.50
2022-12-04T11:19:04.756Z,101592.25
2022-12-04T11:21:32.704Z,101608.69
2022-12-04T11:24:00.708Z,101604.59
2022-12-04T11:26:34.816Z,101607.16
2022-12-04T11:29:02.785Z,101593.81
2022-12-04T11:31:30.766Z,101618.13
2022-12-04T11:33:59.859Z,101604.38
2022-12-04T11:36:28.839Z,101608.34
2022-12-04T11:39:05.699Z,101606.78
2022-12-04T11:41:35.043Z,101605.34
2022-12-04T11:44:03.053Z,101601.09
2022-12-04T11:46:31.950Z,101602.78
2022-12-04T11:48:59.963Z,101594.50
2022-12-04T11:51:35.560Z,101589.13
2022-12-04T11:54:07.578Z,101583.75
2022-12-04T11:56:37.469Z,101592.72
2022-12-04T11:59:24.340Z,101590.47
2022-12-04T12:01:58.174Z,101574.03
2022-12-04T12:04:59.323Z,101551.28
2022-12-04T12:07:34.688Z,101578.69
2022-12-04T12:10:05.940Z,101573.44
2022-12-04T12:12:41.137Z,101568.13
2022-12-04T12:15:15.158Z,101585.81
2022-12-04T12:17:47.138Z,101585.72
2022-12-04T12:20:16.717Z,101584.50
2022-12-04T12:23:04.023Z,101575.81
2022-12-04T12:25:34.314Z,101576.31
2022-12-04T12:28:16.991Z,101558.03
2022-12-04T12:30:53.775Z,101574.00
2022-12-04T12:33:22.546Z,101570.50
2022-12-04T12:35:55.156Z,101569.06
2022-12-04T12:38:23.975Z,101572.81
2022-12-04T12:40:54.520Z,101565.63
2022-12-04T12:43:25.565Z,101558.50
2022-12-04T12:45:55.189Z,101568.59
2022-12-04T12:48:27.350Z,101569.75
2022-12-04T12:51:14.914Z,101568.25
2022-12-04T12:53:47.992Z,101562.38
2022-12-04T12:56:15.906Z,101566.31
2022-12-04T12:58:47.271Z,101573.78
2022-12-04T13:01:20.497Z,101572.97
2022-12-04T13:03:51.863Z,101572.00
2022-12-04T13:06:20.885Z,101566.63
2022-12-04T13:08:55.836Z,101561.94
2022-12-04T13:11:25.638Z,101568.06
2022-12-04T13:13:57.709Z,101563.47
2022-12-04T13:16:26.688Z,101547.84
2022-12-04T13:18:58.911Z,101564.59
2022-12-04T13:21:32.423Z,101578.84
2022-12-04T13:24:26.372Z,101585.97
2022-12-04T13:26:56.631Z,101580.72
2022-12-04T13:29:36.912Z,101575.56
2022-12-04T13:32:25.593Z,101585.59
2022-12-04T13:34:59.267Z,101569.13
2022-12-04T13:37:32.051Z,101580.88
2022-12-04T13:40:29.443Z,101585.59
2022-12-04T13:43:26.590Z,101584.22
2022-12-04T13:45:56.979Z,101577.97
2022-12-04T13:48:33.356Z,101582.41
2022-12-04T13:51:06.660Z,101577.22
2022-12-04T13:53:37.349Z,101580.84
2022-12-04T13:56:09.501Z,101579.13
2022-12-04T13:58:39.414Z,101580.13
2022-12-04T14:01:21.977Z,101592.56
2022-12-04T14:03:50.658Z,101588.19
2022-12-04T14:06:23.375Z,101583.78
2022-12-04T14:08:56.051Z,101584.56
2022-12-04T14:11:24.234Z,101580.97
2022-12-04T14:13:54.382Z,101585.53
2022-12-04T14:16:25.432Z,101580.25
2022-12-04T14:18:54.577Z,101584.72
2022-12-04T14:21:22.529Z,101581.28
2022-12-04T14:23:50.717Z,101582.00
2022-12-04T14:26:23.185Z,101585.38
2022-12-04T14:28:53.255Z,101585.38
2022-12-04T14:31:30.649Z,101582.91
2022-12-04T14:34:00.035Z,101585.84
2022-12-04T14:36:28.653Z,101568.31
2022-12-04T14:39:11.667Z,101578.16
2022-12-04T14:41:39.634Z,101569.47
2022-12-04T14:44:07.631Z,101579.28
2022-12-04T14:46:40.620Z,101575.75
2022-12-04T14:49:18.394Z,101573.19
2022-12-04T14:51:49.183Z,101570.56
2022-12-04T14:54:19.392Z,101574.19
2022-12-04T14:56:56.921Z,101573.19
2022-12-04T14:59:26.204Z,101575.91
2022-12-04T15:01:56.009Z,101575.91
2022-12-04T15:04:25.215Z,101581.28
2022-12-04T15:06:58.483Z,101584.84
2022-12-04T15:09:46.096Z,101592.81
2022-12-04T15:12:36.480Z,101603.41
2022-12-04T15:15:10.624Z,101603.47
2022-12-04T15:17:39.937Z,101622.91
2022-12-04T15:20:12.663Z,101625.53
2022-12-04T15:22:40.607Z,101623.72
2022-12-04T15:25:16.063Z,101627.22
2022-12-04T15:27:43.994Z,101628.09
2022-12-04T15:30:17.102Z,101625.44
2022-12-04T15:32:46.942Z,101617.53
2022-12-04T15:35:17.710Z,101619.41
2022-12-04T15:37:45.728Z,101623.00
2022-12-04T15:40:19.732Z,101635.41
2022-12-04T15:42:47.606Z,101637.28
2022-12-04T15:45:25.357Z,101640.81
2022-12-04T15:47:55.095Z,101637.44
2022-12-04T15:50:27.044Z,101637.56
2022-12-04T15:52:58.892Z,101642.00
2022-12-04T15:55:27.583Z,101636.81
2022-12-04T15:57:56.248Z,101647.41
2022-12-04T16:00:25.558Z,101647.41
2022-12-04T16:02:54.934Z,101639.47
2022-12-04T16:05:37.519Z,101642.03
2022-12-04T16:08:23.880Z,101639.38
2022-12-04T16:10:59.422Z,101652.66
2022-12-04T16:13:32.266Z,101634.16
2022-12-04T16:16:01.226Z,101648.16
2022-12-04T16:18:30.637Z,101655.28
2022-12-04T16:20:58.672Z,101656.16
2022-12-04T16:23:26.977Z,101652.66
2022-12-04T16:25:54.862Z,101662.44
2022-12-04T16:28:22.811Z,101665.03
2022-12-04T16:30:51.647Z,101664.25
2022-12-04T16:33:19.610Z,101672.16
2022-12-04T16:35:49.015Z,101665.97
2022-12-04T16:38:17.573Z,101674.75
2022-12-04T16:40:45.995Z,101678.31
2022-12-04T16:43:14.986Z,101681.91
2022-12-04T16:45:45.527Z,101678.28
2022-12-04T16:48:13.894Z,101690.69
2022-12-04T16:50:41.905Z,101695.13
2022-12-04T16:53:11.463Z,101689.75
2022-12-04T16:55:40.206Z,101698.59
2022-12-04T16:58:08.268Z,101698.59
2022-12-04T17:00:36.559Z,101706.44
2022-12-04T17:03:05.243Z,101705.50
2022-12-04T17:05:35.892Z,101705.38
2022-12-04T17:08:03.890Z,101702.69
2022-12-04T17:10:33.238Z,101717.72
2022-12-04T17:13:01.234Z,101722.13
2022-12-04T17:15:29.140Z,101711.50
2022-12-04T17:17:57.067Z,101727.34
2022-12-04T17:20:24.978Z,101723.84
2022-12-04T17:22:52.889Z,101734.41
2022-12-04T17:25:20.946Z,101737.94
2022-12-04T17:27:50.207Z,101737.84
2022-12-04T17:30:18.377Z,101732.56
2022-12-04T17:32:47.820Z,101742.22
2022-12-04T17:35:15.836Z,101741.34
2022-12-04T17:37:43.774Z,101748.41
2022-12-04T17:40:13.096Z,101751.09
2022-12-04T17:42:41.080Z,101755.47
2022-12-04T17:45:12.109Z,101755.47
2022-12-04T17:47:40.031Z,101749.31
2022-12-04T17:50:08.721Z,101751.94
2022-12-04T17:52:36.651Z,101757.19
2022-12-04T17:55:04.658Z,101751.91
2022-12-04T17:57:32.546Z,101758.97
2022-12-04T18:00:00.425Z,101756.28
2022-12-04T18:02:29.775Z,101761.56
2022-12-04T18:04:57.911Z,101762.44
2022-12-04T18:07:26.059Z,101767.72
2022-12-04T18:09:54.117Z,101762.38
2022-12-04T18:12:22.540Z,101777.44
2022-12-04T18:14:50.546Z,101774.78
2022-12-04T18:17:20.673Z,101772.97
2022-12-04T18:19:50.044Z,101776.50
2022-12-04T18:22:17.968Z,101780.88
2022-12-04T18:24:45.917Z,101787.94
2022-12-04T18:27:13.862Z,101792.31
2022-12-04T18:29:41.767Z,101787.03
2022-12-04T18:32:09.822Z,101784.38
2022-12-04T18:34:39.036Z,101793.22
2022-12-04T18:37:08.354Z,101799.34
2022-12-04T18:39:36.307Z,101793.16
2022-12-04T18:42:04.410Z,101797.53
2022-12-04T18:44:32.363Z,101801.94
2022-12-04T18:47:00.355Z,101798.41
2022-12-04T18:49:28.301Z,101801.97
2022-12-04T18:51:56.290Z,101799.31
2022-12-04T18:54:25.760Z,101804.59
2022-12-04T18:56:53.726Z,101808.09
2022-12-04T18:59:22.492Z,101806.38
2022-12-04T19:01:51.060Z,101816.06
2022-12-04T19:04:19.621Z,101816.06
2022-12-04T19:06:48.710Z,101816.03
2022-12-04T19:09:18.501Z,101815.13
2022-12-04T19:11:47.824Z,101815.97
2022-12-04T19:14:23.117Z,101818.56
2022-12-04T19:16:51.877Z,101822.06
2022-12-04T19:19:19.856Z,101821.16
2022-12-04T19:21:47.761Z,101824.66
2022-12-04T19:24:15.668Z,101828.22
2022-12-04T19:26:43.588Z,101837.94
2022-12-04T19:29:14.107Z,101839.69
2022-12-04T19:31:42.218Z,101840.59
2022-12-04T19:34:10.234Z,101842.38
2022-12-04T19:36:38.136Z,101839.72
2022-12-04T19:39:07.206Z,101837.09
2022-12-04T19:41:37.276Z,101838.81
2022-12-04T19:44:25.965Z,101847.59
2022-12-04T19:46:54.747Z,101846.72
2022-12-04T19:49:22.684Z,101844.97
2022-12-04T19:51:50.661Z,101843.22
2022-12-04T19:54:18.836Z,101849.41
2022-12-04T19:56:51.186Z,101846.75
2022-12-04T19:59:19.717Z,101851.19
2022-12-04T20:01:48.208Z,101863.56
2022-12-04T20:04:17.722Z,101852.06
2022-12-04T20:06:46.422Z,101855.59
2022-12-04T20:09:15.699Z,101859.13
2022-12-04T20:11:43.618Z,101856.47
2022-12-04T20:14:11.690Z,101859.22
2022-12-04T20:16:40.062Z,101855.66
2022-12-04T20:19:08.955Z,101853.16
2022-12-04T20:21:38.267Z,101861.03
2022-12-04T20:24:07.263Z,101854.06
2022-12-04T20:26:37.288Z,101876.06
2022-12-04T20:29:05.559Z,101870.72
2022-12-04T20:31:35.512Z,101877.78
2022-12-04T20:34:05.280Z,101878.63
2022-12-04T20:36:36.489Z,101892.81
2022-12-04T20:39:05.832Z,101888.41
2022-12-04T20:41:33.852Z,101897.22
2022-12-04T20:44:04.833Z,101905.16
2022-12-04T20:46:33.580Z,101903.38
2022-12-04T20:49:01.738Z,101902.47
2022-12-04T20:51:30.578Z,101908.59
2022-12-04T20:53:59.212Z,101920.13
2022-12-04T20:56:30.942Z,101911.31
2022-12-04T20:58:59.254Z,101919.25
2022-12-04T21:01:27.498Z,101919.22
2022-12-04T21:03:55.465Z,101921.03
2022-12-04T21:06:28.346Z,101921.78
2022-12-04T21:09:01.883Z,101925.34
2022-12-04T21:11:31.982Z,101916.59
2022-12-04T21:14:17.919Z,101926.31
2022-12-04T21:16:45.850Z,101921.03
2022-12-04T21:19:15.649Z,101928.06
2022-12-04T21:21:43.597Z,101925.44
2022-12-04T21:24:12.526Z,101928.97
2022-12-04T21:26:41.769Z,101931.63
2022-12-04T21:29:09.784Z,101936.00
2022-12-04T21:31:38.102Z,101943.97
2022-12-04T21:34:07.371Z,101946.53
2022-12-04T21:36:35.782Z,101948.31
2022-12-04T21:39:03.875Z,101951.84
2022-12-04T21:41:49.143Z,101954.44
2022-12-04T21:44:19.101Z,101952.66
2022-12-04T21:46:47.422Z,101953.59
2022-12-04T21:49:15.473Z,101955.41
2022-12-04T21:51:59.406Z,101962.53
2022-12-04T21:54:27.539Z,101968.69
2022-12-04T21:56:55.650Z,101965.16
2022-12-04T21:59:25.312Z,101967.75
2022-12-04T22:01:53.373Z,101957.25
2022-12-04T22:04:22.036Z,101968.75
2022-12-04T22:06:50.059Z,101966.16
2022-12-04T22:09:17.991Z,101962.66
2022-12-04T22:11:48.309Z,101957.34
2022-12-04T22:14:16.272Z,101962.66
2022-12-04T22:16:45.790Z,101970.63
2022-12-04T22:19:13.943Z,101968.88
2022-12-04T22:21:42.154Z,101972.41
2022-12-04T22:24:10.624Z,101970.63
2022-12-04T22:26:38.650Z,101974.19
2022-12-04T22:29:33.777Z,101983.00
2022-12-04T22:31:56.500Z,101981.28
2022-12-04T22:34:24.548Z,101991.03
2022-12-04T22:36:52.463Z,101990.13
2022-12-04T22:39:20.394Z,101990.09
2022-12-04T22:41:48.317Z,101992.72
2022-12-04T22:44:16.412Z,101991.81
2022-12-04T22:46:44.404Z,101982.09
2022-12-04T22:49:13.801Z,101984.81
2022-12-04T22:51:41.717Z,101982.19
2022-12-04T22:54:12.942Z,101983.88
2022-12-04T22:56:41.026Z,101990.19
2022-12-04T22:59:08.927Z,101991.03
2022-12-04T23:01:36.852Z,101994.63
2022-12-04T23:04:04.941Z,101987.59
2022-12-04T23:06:34.473Z,101991.19
2022-12-04T23:09:03.483Z,101985.03
2022-12-04T23:11:31.649Z,101992.00
2022-12-04T23:14:02.249Z,102009.69
2022-12-04T23:16:30.883Z,102001.81
2022-12-04T23:18:58.945Z,102005.34
2022-12-04T23:21:26.853Z,102012.41
2022-12-04T23:23:56.190Z,102007.16
2022-12-04T23:26:25.077Z,102013.38
2022-12-04T23:28:52.986Z,102008.97
2022-12-04T23:31:21.035Z,102009.88
2022-12-04T23:33:49.066Z,102020.44
2022-12-04T23:36:17.011Z,102020.41
2022-12-04T23:38:45.214Z,102017.78
2022-12-04T23:41:15.339Z,102021.31
2022-12-04T23:43:43.290Z,102025.75
2022-12-04T23:46:11.881Z,102024.81
2022-12-04T23:48:39.875Z,102028.38
2022-12-04T23:51:07.901Z,102027.50
2022-12-04T23:53:35.825Z,102020.44
2022-12-04T23:56:06.298Z,102023.06
2022-12-04T23:58:35.781Z,102033.66
